KUNV/SCE METAR and TAF weather

Enter ICAO airport designator
Station Type Date Time Source
KUNV METAR 2019/10/21 02:15 UTC NOAA

KUNV 210215Z AUTO 00000KT 10SM OVC013 11/10 A3000 RMK AO2 T01120095


Station Type Date Time Source
KUNV Decoded METAR 2019/10/21 02:15 UTC NOAA

State College, University Park Airport, PA, United States (KUNV) 40-51N 077-51W
Oct 20, 2019 - 10:15 PM EDT / 2019.10.21 0215 UTC
Wind: Calm:0
Visibility: 10 mile(s):0
Sky conditions: overcast
Temperature: 52.2 F (11.2 C)
Dew Point: 49.1 F (9.5 C)
Relative Humidity: 89%
Pressure (altimeter): 30 in. Hg (1015 hPa)
ob: KUNV 210215Z AUTO 00000KT 10SM OVC013 11/10 A3000 RMK AO2 T01120095
cycle: 2

Station Type Date Time Source
KUNV TAF 2019/10/20 18:42 UTC NOAA

TAF KUNV 201741Z 2018/2118 35005KT P6SM BKN012 OVC040
FM210300 VRB03KT 4SM BR OVC008
FM211400 14007KT P6SM SKC

Example: see airport list